Time;durP1;ratioP1;P1;durP2;ratioP2;P2;SDS_P1;SDS_P2;PMS_P1;PMS_P2;Temp;Humidity;BMP_temperature;BMP_pressure;BME280_temperature;BME280_humidity;BME280_pressure;Samples;Min_cycle;Max_cycle;Signal;HPM_P1;HPM_P2
2021/11/09 00:02:31;;;;;;;11.00;8.30;;;8.70;99.90;;;;;;6202964;28;20983;-66
2021/11/09 00:05:35;;;;;;;8.10;7.23;;;8.80;99.90;;;;;;6202859;28;20563;-66
2021/11/09 00:08:42;;;;;;;9.77;6.80;;;8.70;99.90;;;;;;6202863;28;20482;-66
2021/11/09 00:11:47;;;;;;;8.37;7.47;;;8.70;99.90;;;;;;6203090;28;20469;-66
2021/11/09 00:14:50;;;;;;;8.57;7.10;;;8.70;99.90;;;;;;6204526;28;20596;-65
2021/11/09 00:17:57;;;;;;;7.33;6.37;;;8.80;99.90;;;;;;6204231;28;20476;-65
2021/11/09 00:21:01;;;;;;;10.23;7.53;;;8.80;99.90;;;;;;6204038;28;20587;-64
2021/11/09 00:24:05;;;;;;;7.60;6.63;;;8.80;99.90;;;;;;6203804;28;20814;-64
2021/11/09 00:27:10;;;;;;;7.43;6.20;;;8.80;99.90;;;;;;6204049;28;20472;-65
2021/11/09 00:30:16;;;;;;;7.57;6.87;;;8.70;99.90;;;;;;6204687;28;20464;-65
2021/11/09 00:33:19;;;;;;;7.40;6.00;;;8.70;99.90;;;;;;6204103;28;20445;-66
2021/11/09 00:36:23;;;;;;;8.83;6.97;;;8.70;99.90;;;;;;6203678;28;20495;-66
2021/11/09 00:39:26;;;;;;;9.57;6.57;;;8.70;99.90;;;;;;6203617;28;20459;-65
2021/11/09 00:42:30;;;;;;;6.70;6.03;;;8.60;99.90;;;;;;6204115;28;20488;-64
2021/11/09 00:45:35;;;;;;;7.87;6.63;;;8.60;99.90;;;;;;6203705;28;20484;-66
2021/11/09 00:48:38;;;;;;;6.87;5.77;;;8.50;99.90;;;;;;6204220;28;20472;-65
2021/11/09 00:51:43;;;;;;;8.43;7.73;;;8.50;99.90;;;;;;6202691;28;20492;-64
2021/11/09 00:54:47;;;;;;;6.70;6.00;;;8.50;99.90;;;;;;6202401;28;20465;-64
2021/11/09 00:57:52;;;;;;;6.23;5.63;;;8.60;99.90;;;;;;6201561;28;21200;-64
2021/11/09 01:00:55;;;;;;;8.03;6.10;;;8.50;99.90;;;;;;6201969;28;20479;-64
2021/11/09 01:03:59;;;;;;;9.10;5.80;;;8.50;99.90;;;;;;6202166;28;20476;-64
2021/11/09 01:07:02;;;;;;;7.70;5.77;;;8.50;99.90;;;;;;6201371;28;20814;-64
2021/11/09 01:10:07;;;;;;;6.50;5.87;;;8.60;99.90;;;;;;6188366;28;20477;-64
2021/11/09 01:13:14;;;;;;;6.60;4.80;;;8.50;99.90;;;;;;6194593;28;20483;-64
2021/11/09 01:16:18;;;;;;;5.97;5.47;;;8.50;99.90;;;;;;6202228;28;20472;-64
2021/11/09 01:19:22;;;;;;;7.60;5.73;;;8.50;99.90;;;;;;6187676;28;20476;-64
2021/11/09 01:22:25;;;;;;;7.43;6.73;;;8.50;99.90;;;;;;6183553;28;20480;-64
2021/11/09 01:25:30;;;;;;;9.80;7.40;;;8.60;99.90;;;;;;6178983;28;20691;-64
2021/11/09 01:28:35;;;;;;;10.10;7.17;;;8.50;99.90;;;;;;6179084;28;20798;-64
2021/11/09 01:31:38;;;;;;;6.60;6.00;;;8.50;99.90;;;;;;6178414;28;20953;-64
2021/11/09 01:34:42;;;;;;;7.00;6.30;;;8.60;99.90;;;;;;6179105;28;20469;-64
2021/11/09 01:37:45;;;;;;;7.93;7.13;;;8.60;99.90;;;;;;6178282;28;20791;-64
2021/11/09 01:40:48;;;;;;;7.37;6.57;;;8.60;99.90;;;;;;6178811;28;20485;-64
2021/11/09 01:43:55;;;;;;;6.67;5.87;;;8.50;99.90;;;;;;6178241;28;20476;-64
2021/11/09 01:46:58;;;;;;;9.23;6.87;;;8.50;99.90;;;;;;6169484;28;20594;-64
2021/11/09 01:50:02;;;;;;;7.20;6.50;;;8.60;99.90;;;;;;6178496;28;20813;-64
2021/11/09 01:53:06;;;;;;;8.37;5.70;;;8.50;99.90;;;;;;6178218;28;20469;-64
2021/11/09 01:56:12;;;;;;;6.10;4.97;;;8.50;99.90;;;;;;6178006;28;20934;-64
2021/11/09 01:59:16;;;;;;;5.00;4.33;;;8.50;99.90;;;;;;6177934;28;21001;-64
2021/11/09 02:02:20;;;;;;;6.03;4.93;;;8.50;99.90;;;;;;6178044;28;20492;-64
2021/11/09 02:05:24;;;;;;;6.47;5.10;;;8.50;99.90;;;;;;6177932;28;20478;-64
2021/11/09 02:08:28;;;;;;;5.80;4.20;;;8.60;99.80;;;;;;6177701;28;20812;-63
2021/11/09 02:11:31;;;;;;;8.57;5.53;;;8.60;99.00;;;;;;6177460;28;20473;-63
2021/11/09 02:14:36;;;;;;;6.53;4.53;;;8.60;98.80;;;;;;6177763;28;20484;-63
2021/11/09 02:17:40;;;;;;;5.90;3.87;;;8.60;98.60;;;;;;6177162;28;20478;-63
2021/11/09 02:20:51;;;;;;;7.23;3.97;;;8.60;98.50;;;;;;6177960;28;20481;-64
2021/11/09 02:23:54;;;;;;;4.60;4.27;;;8.60;98.20;;;;;;6177771;28;20549;-64
2021/11/09 02:26:58;;;;;;;5.07;4.57;;;8.50;98.00;;;;;;6177671;28;20974;-63
2021/11/09 02:30:01;;;;;;;7.43;4.80;;;8.50;97.80;;;;;;6177045;28;20501;-64
2021/11/09 02:33:04;;;;;;;4.87;3.83;;;8.50;97.80;;;;;;6177440;28;20798;-64
2021/11/09 02:36:10;;;;;;;9.27;3.73;;;8.50;97.80;;;;;;6177677;28;20500;-64
2021/11/09 02:39:13;;;;;;;5.70;3.90;;;8.50;97.50;;;;;;6177458;28;20486;-64
2021/11/09 02:42:19;;;;;;;8.63;4.70;;;8.50;97.50;;;;;;6178006;28;20810;-64
2021/11/09 02:45:32;;;;;;;5.63;3.87;;;8.50;97.50;;;;;;6177334;28;20523;-64
2021/11/09 02:48:38;;;;;;;4.60;4.20;;;8.40;97.30;;;;;;6173322;28;20478;-66
2021/11/09 02:51:45;;;;;;;4.47;3.77;;;8.40;96.70;;;;;;6177294;28;20982;-65
2021/11/09 02:54:51;;;;;;;5.20;3.67;;;8.30;96.70;;;;;;6177008;28;20472;-65
2021/11/09 02:58:00;;;;;;;4.10;3.40;;;8.30;96.40;;;;;;6176776;28;21020;-65
2021/11/09 03:01:08;;;;;;;4.13;3.83;;;8.30;96.40;;;;;;6177208;28;20488;-65
2021/11/09 03:04:14;;;;;;;4.03;3.73;;;8.20;96.30;;;;;;6177413;28;20473;-66
2021/11/09 03:07:28;;;;;;;4.07;3.60;;;8.30;96.40;;;;;;6177252;28;20489;-65
2021/11/09 03:10:34;;;;;;;4.00;3.50;;;8.30;96.70;;;;;;6177021;28;20482;-65
2021/11/09 03:13:38;;;;;;;7.30;3.60;;;8.30;96.10;;;;;;6177447;28;20470;-65
2021/11/09 03:16:43;;;;;;;4.73;3.80;;;8.20;95.60;;;;;;6177105;28;20783;-65
2021/11/09 03:19:50;;;;;;;6.77;3.73;;;8.20;95.80;;;;;;6177026;28;20481;-65
2021/11/09 03:40:00;;;;;;;4.57;3.77;;;8.20;96.00;;;;;;6179513;28;20477;-65
2021/11/09 03:40:12;;;;;;;3.30;3.00;;;8.10;95.90;;;;;;6181274;28;20548;-65
2021/11/09 03:46:36;;;;;;;3.87;3.30;;;8.10;95.00;;;;;;6151334;28;20473;-65
2021/11/09 03:49:40;;;;;;;6.13;3.23;;;8.00;94.80;;;;;;6181005;28;20489;-65
2021/11/09 03:52:46;;;;;;;4.60;3.43;;;7.90;94.60;;;;;;6181138;28;20481;-65
2021/11/09 03:56:13;;;;;;;6.87;3.20;;;7.90;94.70;;;;;;6176371;28;20489;-65
2021/11/09 03:59:17;;;;;;;5.87;3.80;;;7.80;94.60;;;;;;6180765;28;20532;-64
2021/11/09 04:02:26;;;;;;;3.40;3.10;;;7.80;94.40;;;;;;6180778;28;20957;-64
2021/11/09 04:05:34;;;;;;;8.50;3.50;;;7.70;94.40;;;;;;6180800;28;20488;-64
2021/11/09 04:08:42;;;;;;;5.27;3.97;;;7.70;94.70;;;;;;6180680;28;20477;-64
2021/11/09 04:11:52;;;;;;;4.40;3.80;;;7.70;95.00;;;;;;6180667;28;20473;-64
2021/11/09 04:15:04;;;;;;;4.20;3.00;;;7.70;94.70;;;;;;6180949;28;20823;-64
2021/11/09 04:18:27;;;;;;;5.50;3.27;;;7.70;94.40;;;;;;6180573;28;20484;-64
2021/11/09 04:21:45;;;;;;;5.20;4.10;;;7.70;94.20;;;;;;6180100;28;20472;-64
2021/11/09 04:28:20;;;;;;;4.80;3.60;;;7.60;94.50;;;;;;6155630;28;20474;-65
2021/11/09 04:31:40;;;;;;;3.77;3.33;;;7.60;94.60;;;;;;6180069;28;20843;-64
2021/11/09 04:35:13;;;;;;;4.40;3.50;;;7.60;94.60;;;;;;6179170;28;20477;-65
2021/11/09 05:02:33;;;;;;;3.63;3.33;;;7.20;94.60;;;;;;6144979;28;20489;-64
2021/11/09 05:09:07;;;;;;;5.73;3.20;;;7.10;94.80;;;;;;6179529;28;20481;-65
2021/11/09 05:12:10;;;;;;;4.13;3.50;;;7.10;95.10;;;;;;6179942;28;20492;-64
2021/11/09 05:15:14;;;;;;;10.27;4.60;;;7.00;94.80;;;;;;6178888;28;20489;-63
2021/11/09 05:18:19;;;;;;;3.93;3.53;;;6.90;95.00;;;;;;6179203;28;20864;-63
2021/11/09 05:21:22;;;;;;;3.40;3.10;;;6.90;95.00;;;;;;6180165;28;20476;-64
2021/11/09 05:24:25;;;;;;;4.43;4.10;;;6.80;95.10;;;;;;6180866;28;20454;-64
2021/11/09 05:27:28;;;;;;;4.90;3.70;;;6.80;95.10;;;;;;6180143;28;20489;-66
2021/11/09 05:30:32;;;;;;;4.23;3.83;;;6.80;95.00;;;;;;6181257;28;20453;-63
2021/11/09 05:33:36;;;;;;;8.20;4.20;;;6.60;95.00;;;;;;6184476;28;20470;-64
2021/11/09 05:36:41;;;;;;;5.17;3.93;;;6.50;95.10;;;;;;6180640;28;20465;-64
2021/11/09 05:39:47;;;;;;;4.23;3.83;;;6.50;95.60;;;;;;6180989;28;20806;-62
2021/11/09 05:42:50;;;;;;;3.77;3.47;;;6.40;95.40;;;;;;6179978;28;20470;-64
2021/11/09 05:45:53;;;;;;;4.43;3.47;;;6.30;95.50;;;;;;6178063;28;20992;-64
2021/11/09 05:48:57;;;;;;;4.80;3.83;;;6.30;95.70;;;;;;6178788;28;20473;-64
2021/11/09 05:52:01;;;;;;;5.27;3.37;;;6.20;95.90;;;;;;6179182;28;20477;-63
2021/11/09 05:55:05;;;;;;;8.93;4.20;;;6.20;96.00;;;;;;6178977;28;20477;-65
2021/11/09 05:58:09;;;;;;;5.30;3.87;;;6.10;96.20;;;;;;6179089;28;20470;-63
2021/11/09 06:01:12;;;;;;;7.60;4.70;;;6.00;96.20;;;;;;6174174;28;20489;-64
2021/11/09 06:04:17;;;;;;;5.40;3.80;;;6.00;96.10;;;;;;6178857;28;20485;-64
2021/11/09 06:07:20;;;;;;;6.63;3.83;;;6.00;96.30;;;;;;6178442;28;20477;-64
2021/11/09 06:10:24;;;;;;;5.67;4.63;;;5.90;96.40;;;;;;6178388;28;20484;-64
2021/11/09 06:13:27;;;;;;;5.10;4.30;;;5.90;96.40;;;;;;6177968;28;20966;-65
2021/11/09 06:16:30;;;;;;;4.70;4.07;;;5.90;96.50;;;;;;6177911;28;20478;-65
2021/11/09 06:19:35;;;;;;;6.73;4.53;;;5.90;96.60;;;;;;6177312;28;20820;-64
2021/11/09 06:22:39;;;;;;;5.93;4.23;;;5.80;96.50;;;;;;6177082;28;20470;-64
2021/11/09 06:25:43;;;;;;;4.87;4.00;;;5.80;96.60;;;;;;6177701;28;20478;-65
2021/11/09 06:28:46;;;;;;;10.10;4.50;;;5.80;96.60;;;;;;6177778;28;20485;-63
2021/11/09 06:31:50;;;;;;;6.53;5.20;;;5.80;96.70;;;;;;6177641;28;20949;-63
2021/11/09 06:34:55;;;;;;;5.10;4.57;;;5.80;96.70;;;;;;6176844;28;20949;-64
2021/11/09 06:37:58;;;;;;;8.03;5.00;;;5.80;96.70;;;;;;6177404;28;20492;-64
2021/11/09 06:41:01;;;;;;;5.20;4.80;;;5.80;96.70;;;;;;6177203;28;20485;-65
2021/11/09 06:44:05;;;;;;;7.10;5.50;;;5.80;96.60;;;;;;6178467;28;20485;-66
2021/11/09 06:47:08;;;;;;;7.80;5.10;;;5.80;96.70;;;;;;6178114;28;20481;-65
2021/11/09 06:50:13;;;;;;;9.90;5.00;;;5.80;96.80;;;;;;6177367;28;20470;-64
2021/11/09 06:53:16;;;;;;;6.80;5.10;;;5.80;96.70;;;;;;6176867;28;20482;-65
2021/11/09 06:56:20;;;;;;;5.63;5.10;;;5.80;96.60;;;;;;6177018;28;20958;-64
2021/11/09 06:59:23;;;;;;;5.23;4.73;;;5.80;96.60;;;;;;6176996;28;20484;-64
2021/11/09 07:02:33;;;;;;;8.20;5.27;;;5.80;96.40;;;;;;6177394;28;20545;-64
2021/11/09 07:05:37;;;;;;;7.20;4.77;;;5.90;97.50;;;;;;6176601;28;20813;-64
2021/11/09 07:08:40;;;;;;;8.60;4.30;;;6.00;97.40;;;;;;6167796;28;20996;-64
2021/11/09 07:11:43;;;;;;;5.57;4.60;;;6.10;97.40;;;;;;6177007;28;20481;-64
2021/11/09 07:14:47;;;;;;;6.23;4.83;;;6.20;97.60;;;;;;6176867;28;20492;-64
2021/11/09 07:17:50;;;;;;;5.73;4.87;;;6.30;97.20;;;;;;6176181;28;20965;-63
2021/11/09 07:20:54;;;;;;;5.83;4.20;;;6.40;97.00;;;;;;6175908;28;20490;-64
2021/11/09 07:23:58;;;;;;;5.57;5.00;;;6.50;96.80;;;;;;6174847;28;20800;-64
2021/11/09 07:27:01;;;;;;;5.57;4.77;;;6.50;96.70;;;;;;6174429;28;20551;-64
2021/11/09 07:30:06;;;;;;;9.50;5.57;;;6.60;96.80;;;;;;6175180;28;20465;-64
2021/11/09 07:33:09;;;;;;;8.60;5.53;;;6.70;96.50;;;;;;6176168;28;20470;-64
2021/11/09 07:36:14;;;;;;;6.73;5.40;;;6.70;96.20;;;;;;6175881;28;20978;-64
2021/11/09 07:39:17;;;;;;;9.30;4.37;;;6.80;96.00;;;;;;6175676;28;20445;-64
2021/11/09 07:42:20;;;;;;;4.50;4.10;;;6.80;95.40;;;;;;6175492;28;20584;-64
2021/11/09 07:45:24;;;;;;;7.37;5.50;;;6.90;95.30;;;;;;6176046;28;20938;-64
2021/11/09 07:48:28;;;;;;;5.53;4.80;;;6.90;95.00;;;;;;6189932;28;20437;-64
2021/11/09 07:51:33;;;;;;;6.17;4.70;;;7.00;94.80;;;;;;6197626;28;20455;-64
2021/11/09 07:54:38;;;;;;;6.07;4.57;;;7.00;94.70;;;;;;6196368;28;20452;-63
2021/11/09 07:57:45;;;;;;;8.27;4.60;;;7.10;94.60;;;;;;6198495;28;20472;-63
2021/11/09 08:00:53;;;;;;;4.20;3.80;;;7.20;94.40;;;;;;6198964;28;20484;-64
2021/11/09 08:04:10;;;;;;;4.83;4.30;;;7.20;94.20;;;;;;6198886;28;20975;-64
2021/11/09 08:07:17;;;;;;;6.30;4.77;;;7.30;94.30;;;;;;6198504;28;20480;-65
2021/11/09 08:10:20;;;;;;;5.80;4.20;;;7.30;94.10;;;;;;6194547;28;20465;-63
2021/11/09 08:13:23;;;;;;;6.03;4.63;;;7.30;93.70;;;;;;6205270;28;20475;-63
2021/11/09 08:16:27;;;;;;;8.43;5.40;;;7.40;93.90;;;;;;6204413;28;20552;-64
2021/11/09 08:19:30;;;;;;;4.70;4.20;;;7.50;93.80;;;;;;6204413;28;20472;-62
2021/11/09 08:22:36;;;;;;;6.97;4.77;;;7.50;93.60;;;;;;6204784;28;20510;-64
2021/11/09 08:25:39;;;;;;;6.93;3.70;;;7.60;93.70;;;;;;6201599;28;20991;-64
2021/11/09 08:28:43;;;;;;;7.60;4.80;;;7.70;93.60;;;;;;6202746;28;20799;-64
2021/11/09 08:31:47;;;;;;;6.90;4.70;;;7.80;93.60;;;;;;6200814;28;20469;-64
2021/11/09 08:34:50;;;;;;;12.03;4.90;;;7.80;93.20;;;;;;6186907;28;20517;-64
2021/11/09 08:37:57;;;;;;;5.00;4.20;;;7.90;93.00;;;;;;6273268;22;21250;-63
2021/11/09 08:41:02;;;;;;;5.20;4.70;;;8.00;93.00;;;;;;6277338;28;20487;-62
2021/11/09 08:44:07;;;;;;;7.43;4.50;;;8.10;92.80;;;;;;6276798;28;20516;-63
2021/11/09 08:47:12;;;;;;;8.73;4.40;;;8.20;92.60;;;;;;6275370;28;20466;-63
2021/11/09 08:50:15;;;;;;;11.97;4.57;;;8.30;92.40;;;;;;6277119;28;21076;-62
2021/11/09 08:53:22;;;;;;;4.70;3.90;;;8.40;92.00;;;;;;6277135;28;20488;-63
2021/11/09 09:06:24;;;;;;;5.23;3.67;;;8.80;91.00;;;;;;6274467;28;20942;-66
2021/11/09 09:09:29;;;;;;;5.30;3.60;;;8.90;90.40;;;;;;6276041;28;20453;-67
2021/11/09 09:12:34;;;;;;;5.73;3.50;;;9.00;90.40;;;;;;6271307;28;20457;-67
2021/11/09 09:15:38;;;;;;;5.93;4.30;;;9.20;89.70;;;;;;6275570;28;20481;-67
2021/11/09 09:18:41;;;;;;;4.47;3.50;;;9.40;88.80;;;;;;6275480;28;20453;-67
2021/11/09 09:21:47;;;;;;;5.67;3.13;;;9.60;88.20;;;;;;6274701;28;20469;-66
2021/11/09 09:25:06;;;;;;;4.33;3.17;;;9.80;86.90;;;;;;6275369;28;20966;-66
2021/11/09 09:28:30;;;;;;;5.10;3.30;;;10.10;84.30;;;;;;6273601;28;20962;-66
2021/11/09 09:31:50;;;;;;;3.63;3.23;;;11.10;82.90;;;;;;6275508;28;20470;-67
2021/11/09 09:58:49;;;;;;;10.48;3.45;;;36.80;19.60;;;;;;6273643;28;20687;-68
2021/11/09 10:02:09;;;;;;;2.90;2.70;;;38.10;18.80;;;;;;6275339;28;20245;-68
2021/11/09 10:05:14;;;;;;;3.40;2.80;;;39.00;17.90;;;;;;6273725;28;20257;-65
2021/11/09 10:08:20;;;;;;;4.40;2.60;;;39.80;16.90;;;;;;6273029;28;20574;-64
2021/11/09 10:11:34;;;;;;;2.97;2.75;;;39.50;16.60;;;;;;6273889;28;20233;-66
2021/11/09 10:14:38;;;;;;;2.55;2.25;;;39.00;16.50;;;;;;6274036;28;20297;-66
2021/11/09 10:17:49;;;;;;;3.30;2.60;;;39.60;15.80;;;;;;6274215;28;20264;-65
2021/11/09 10:20:55;;;;;;;3.03;2.75;;;39.40;16.00;;;;;;6269109;28;20675;-65
2021/11/09 10:23:58;;;;;;;2.90;2.60;;;40.20;15.60;;;;;;6274089;28;20259;-67
2021/11/09 10:27:12;;;;;;;4.68;3.72;;;39.80;15.50;;;;;;6273420;28;20395;-67
2021/11/09 10:30:21;;;;;;;4.25;2.92;;;39.60;15.80;;;;;;6274877;28;20245;-67
2021/11/09 10:33:26;;;;;;;3.95;2.83;;;39.70;15.60;;;;;;6274942;28;20214;-66
2021/11/09 10:36:33;;;;;;;3.28;2.25;;;40.40;15.50;;;;;;6271635;28;20567;-65
2021/11/09 10:39:36;;;;;;;5.82;2.50;;;39.60;15.20;;;;;;6273677;28;20214;-67
2021/11/09 10:42:41;;;;;;;2.95;2.65;;;40.00;15.40;;;;;;6272763;28;20607;-67
2021/11/09 10:45:46;;;;;;;3.70;2.95;;;40.00;15.20;;;;;;6273506;28;20694;-66
2021/11/09 10:48:49;;;;;;;3.00;2.70;;;40.30;15.00;;;;;;6272792;28;20223;-66
2021/11/09 10:51:54;;;;;;;2.55;2.35;;;41.00;14.90;;;;;;6273612;28;20236;-68
2021/11/09 10:55:03;;;;;;;3.50;2.75;;;39.80;14.90;;;;;;6273830;28;20553;-66
2021/11/09 10:58:29;;;;;;;3.83;2.88;;;39.50;15.40;;;;;;6273899;28;20666;-65
2021/11/09 11:04:53;;;;;;;4.40;3.08;;;40.40;15.20;;;;;;6272791;28;20248;-68
2021/11/09 11:07:57;;;;;;;5.13;2.97;;;41.10;15.00;;;;;;6303693;22;20647;-67
2021/11/09 11:11:15;;;;;;;6.63;2.80;;;39.10;15.00;;;;;;6297736;28;20225;-67
2021/11/09 11:14:21;;;;;;;2.78;2.30;;;37.50;16.30;;;;;;6297001;28;20232;-67
2021/11/09 11:17:26;;;;;;;4.97;2.55;;;37.10;16.40;;;;;;6277737;28;20228;-67
2021/11/09 11:20:29;;;;;;;4.55;2.70;;;37.00;16.60;;;;;;6290304;28;20270;-67
2021/11/09 11:23:33;;;;;;;3.90;2.85;;;37.50;16.20;;;;;;6274497;28;20226;-68
2021/11/09 11:26:38;;;;;;;2.40;2.20;;;38.00;16.10;;;;;;6271431;28;20253;-69
2021/11/09 11:29:42;;;;;;;2.78;2.25;;;39.00;15.80;;;;;;6269547;28;20248;-68
2021/11/09 11:32:47;;;;;;;2.80;2.30;;;39.50;15.10;;;;;;6272141;28;20239;-68
2021/11/09 11:35:51;;;;;;;2.75;2.47;;;38.10;15.90;;;;;;6272121;28;20226;-68
2021/11/09 11:38:57;;;;;;;3.30;2.50;;;38.60;15.90;;;;;;6269197;28;20657;-68
2021/11/09 11:42:07;;;;;;;4.75;2.75;;;39.10;15.60;;;;;;6271812;28;20646;-68
2021/11/09 11:45:10;;;;;;;2.97;2.28;;;38.70;15.50;;;;;;6276545;28;20227;-68
2021/11/09 11:48:15;;;;;;;2.65;2.00;;;37.50;16.00;;;;;;6273582;28;20238;-68
2021/11/09 11:51:18;;;;;;;4.05;2.58;;;37.10;16.60;;;;;;6276693;28;20231;-67
2021/11/09 11:54:40;;;;;;;4.00;3.60;;;36.80;16.90;;;;;;6277696;28;20211;-67
2021/11/09 11:57:49;;;;;;;3.03;2.72;;;37.70;16.50;;;;;;6272510;28;20238;-66
2021/11/09 12:00:55;;;;;;;4.15;2.80;;;38.60;16.30;;;;;;6277555;28;20239;-66
2021/11/09 12:04:00;;;;;;;2.92;2.53;;;39.80;15.90;;;;;;6275947;28;20890;-68
2021/11/09 12:07:05;;;;;;;3.45;3.15;;;40.20;15.30;;;;;;6276928;28;20239;-68
2021/11/09 12:10:09;;;;;;;5.97;2.58;;;40.70;15.10;;;;;;6277173;28;20551;-68
2021/11/09 12:13:14;;;;;;;3.63;2.10;;;38.70;15.10;;;;;;6276163;28;20458;-67
2021/11/09 12:16:44;;;;;;;2.97;2.67;;;34.80;16.90;;;;;;6276269;28;20312;-67
2021/11/09 12:19:49;;;;;;;2.97;2.20;;;33.30;17.90;;;;;;6278676;28;20237;-67
2021/11/09 12:22:54;;;;;;;4.47;2.10;;;34.40;17.70;;;;;;6276211;28;20245;-65
2021/11/09 12:25:58;;;;;;;3.40;2.30;;;35.30;17.80;;;;;;6261408;28;20231;-66
2021/11/09 12:29:01;;;;;;;2.85;2.45;;;33.80;18.00;;;;;;6275341;28;20227;-66
2021/11/09 12:32:28;;;;;;;4.78;2.45;;;31.00;20.30;;;;;;6275737;28;20223;-68
2021/11/09 12:35:34;;;;;;;2.90;2.60;;;31.10;20.20;;;;;;6260761;28;20259;-69
2021/11/09 12:38:40;;;;;;;2.80;1.93;;;28.60;21.40;;;;;;6250894;28;20246;-67
2021/11/09 12:41:54;;;;;;;3.63;2.47;;;28.00;22.80;;;;;;6272943;28;20227;-67
2021/11/09 12:44:58;;;;;;;5.60;2.80;;;30.00;22.00;;;;;;6298692;28;20226;-66
2021/11/09 12:48:04;;;;;;;4.33;2.67;;;31.50;20.70;;;;;;6277781;28;20226;-66
2021/11/09 12:51:11;;;;;;;5.28;2.55;;;32.40;19.80;;;;;;6275223;28;20682;-67
2021/11/09 12:54:16;;;;;;;4.38;2.25;;;33.50;19.10;;;;;;6299527;28;20241;-67
2021/11/09 12:57:25;;;;;;;2.63;2.30;;;34.00;18.70;;;;;;6276479;28;20302;-67
2021/11/09 13:00:38;;;;;;;2.25;1.70;;;35.50;17.90;;;;;;6298525;28;20221;-67
2021/11/09 13:03:57;;;;;;;4.32;2.00;;;34.60;18.10;;;;;;6275668;28;20239;-67
2021/11/09 13:07:16;;;;;;;3.30;1.80;;;32.70;18.40;;;;;;6250286;28;20653;-66
2021/11/09 13:10:21;;;;;;;1.90;1.50;;;28.90;21.00;;;;;;6251039;28;20316;-65
2021/11/09 13:13:25;;;;;;;2.93;1.53;;;25.40;24.00;;;;;;6250526;28;20680;-65
2021/11/09 13:16:28;;;;;;;5.00;2.40;;;23.60;25.90;;;;;;6250194;28;20582;-65
2021/11/09 13:19:38;;;;;;;3.40;2.13;;;22.00;27.60;;;;;;6250841;28;20235;-65
2021/11/09 13:22:54;;;;;;;2.90;2.10;;;20.70;29.10;;;;;;6255511;28;20227;-65
2021/11/09 13:25:58;;;;;;;2.10;1.50;;;19.40;31.20;;;;;;6272716;28;20244;-64
2021/11/09 13:29:07;;;;;;;3.90;2.33;;;18.80;32.40;;;;;;6271738;28;20745;-64
2021/11/09 13:32:11;;;;;;;2.13;1.90;;;19.30;32.50;;;;;;6274445;28;20238;-63
2021/11/09 13:35:18;;;;;;;3.47;2.00;;;20.70;30.90;;;;;;6262178;28;20243;-64
2021/11/09 13:38:23;;;;;;;1.90;1.73;;;20.70;30.10;;;;;;6249294;28;20564;-64
2021/11/09 13:41:31;;;;;;;2.03;1.83;;;19.70;30.90;;;;;;6265935;28;20236;-63
2021/11/09 13:44:36;;;;;;;2.20;1.93;;;18.80;32.70;;;;;;6273302;28;20232;-64
2021/11/09 13:47:40;;;;;;;3.00;2.00;;;18.30;33.60;;;;;;6281311;28;20237;-67
2021/11/09 13:50:45;;;;;;;3.70;2.43;;;17.80;34.30;;;;;;6279761;28;20474;-67
2021/11/09 13:53:50;;;;;;;2.20;1.40;;;17.20;35.50;;;;;;6274536;28;20477;-67
2021/11/09 13:56:55;;;;;;;3.50;1.87;;;16.40;37.10;;;;;;6274280;28;20474;-64
2021/11/09 14:00:18;;;;;;;2.17;1.67;;;15.80;38.30;;;;;;6274332;28;20470;-65
2021/11/09 14:03:29;;;;;;;2.20;2.00;;;15.30;39.50;;;;;;6249456;28;20479;-65
2021/11/09 14:07:04;;;;;;;2.33;2.10;;;14.70;40.70;;;;;;6249499;28;20497;-65
2021/11/09 14:13:37;;;;;;;2.67;2.07;;;14.20;42.30;;;;;;6228941;28;20498;-65
2021/11/09 14:16:48;;;;;;;3.40;2.20;;;14.10;42.70;;;;;;6249052;28;20939;-65
2021/11/09 14:19:51;;;;;;;2.53;2.33;;;13.90;42.40;;;;;;6249213;28;20479;-65
2021/11/09 14:23:06;;;;;;;2.50;2.13;;;13.80;42.40;;;;;;6248977;28;20967;-66
2021/11/09 14:26:18;;;;;;;4.03;2.37;;;13.50;43.90;;;;;;6248982;28;20586;-65
2021/11/09 14:29:24;;;;;;;4.50;2.73;;;13.40;45.00;;;;;;6269159;28;20481;-65
2021/11/09 14:32:32;;;;;;;2.57;2.37;;;13.40;46.00;;;;;;6273630;28;20849;-65
2021/11/09 14:35:36;;;;;;;3.53;2.50;;;13.30;47.30;;;;;;6249669;28;20475;-66
2021/11/09 14:38:44;;;;;;;6.03;3.30;;;13.20;48.10;;;;;;6288003;28;20953;-65
2021/11/09 14:42:07;;;;;;;3.20;2.90;;;13.30;48.50;;;;;;6277959;28;20477;-66
2021/11/09 14:45:18;;;;;;;2.83;2.47;;;13.20;49.20;;;;;;6267992;28;20751;-65
2021/11/09 14:48:26;;;;;;;3.00;2.70;;;13.10;50.20;;;;;;6254419;28;20446;-66
2021/11/09 14:51:34;;;;;;;4.40;2.93;;;12.90;51.10;;;;;;6272706;28;20445;-66
2021/11/09 14:54:45;;;;;;;7.97;3.43;;;12.70;51.80;;;;;;6281370;28;20458;-67
2021/11/09 14:57:49;;;;;;;5.57;3.53;;;12.70;52.50;;;;;;6260655;28;20926;-65
2021/11/09 15:00:54;;;;;;;7.13;3.20;;;12.60;52.90;;;;;;6273172;28;20541;-66
2021/11/09 15:04:03;;;;;;;4.53;3.03;;;12.50;53.60;;;;;;6272707;28;20802;-65
2021/11/09 15:07:14;;;;;;;6.80;3.40;;;12.30;54.30;;;;;;6272572;28;20976;-64
2021/11/09 15:10:32;;;;;;;4.87;3.90;;;12.20;55.30;;;;;;6273674;28;20466;-65
2021/11/09 15:30:22;;;;;;;5.73;3.07;;;11.80;58.70;;;;;;6253080;28;20457;-65
2021/11/09 15:33:28;;;;;;;3.50;3.20;;;11.80;59.50;;;;;;6253177;28;20426;-64
2021/11/09 15:36:43;;;;;;;5.17;3.60;;;11.80;59.70;;;;;;6271534;28;20464;-65
2021/11/09 15:39:46;;;;;;;6.07;3.67;;;11.70;60.50;;;;;;6277529;28;20458;-66
2021/11/09 15:42:53;;;;;;;5.40;3.20;;;11.60;61.00;;;;;;6277150;28;20481;-68
2021/11/09 15:46:02;;;;;;;6.37;3.80;;;11.60;61.80;;;;;;6277523;28;20474;-65
2021/11/09 15:49:07;;;;;;;5.03;4.50;;;11.60;62.50;;;;;;6277458;28;20548;-66
2021/11/09 15:52:10;;;;;;;7.80;4.77;;;11.60;63.30;;;;;;6277576;28;20492;-66
2021/11/09 15:55:22;;;;;;;5.67;4.97;;;11.60;64.30;;;;;;6276953;28;20504;-67
2021/11/09 15:58:27;;;;;;;10.90;6.00;;;11.50;64.20;;;;;;6277423;28;20469;-65
2021/11/09 16:01:30;;;;;;;5.97;5.37;;;11.50;64.90;;;;;;6286619;28;20469;-64
2021/11/09 16:04:37;;;;;;;5.93;4.77;;;11.50;65.30;;;;;;6291099;28;20474;-65
2021/11/09 16:07:43;;;;;;;9.53;6.80;;;11.60;66.60;;;;;;6274368;28;20791;-64
2021/11/09 16:10:48;;;;;;;6.47;5.70;;;11.60;66.20;;;;;;6274820;28;20470;-62
2021/11/09 16:13:52;;;;;;;7.97;5.77;;;11.50;66.60;;;;;;6277543;28;20465;-65
2021/11/09 16:16:56;;;;;;;8.63;5.90;;;11.40;67.00;;;;;;6276944;28;20485;-66
2021/11/09 16:20:00;;;;;;;7.37;4.87;;;11.40;67.70;;;;;;6277151;28;20488;-66
2021/11/09 16:23:04;;;;;;;6.50;4.77;;;11.30;68.00;;;;;;6276999;28;20474;-65
2021/11/09 16:26:08;;;;;;;30.77;8.03;;;11.20;68.60;;;;;;6276634;28;20469;-66
2021/11/09 16:29:23;;;;;;;7.17;4.77;;;11.20;69.10;;;;;;6258214;28;20529;-66
2021/11/09 16:32:28;;;;;;;11.17;5.87;;;11.10;69.70;;;;;;6251450;28;20471;-65
2021/11/09 16:35:33;;;;;;;7.63;5.43;;;11.00;70.20;;;;;;6266425;28;20474;-66
2021/11/09 16:38:39;;;;;;;5.93;5.17;;;10.90;70.60;;;;;;6276079;28;20481;-64
2021/11/09 16:41:42;;;;;;;8.93;5.57;;;10.90;71.20;;;;;;6272071;28;20592;-65
2021/11/09 16:44:47;;;;;;;7.60;5.60;;;10.80;71.80;;;;;;6275189;28;20760;-64
2021/11/09 16:47:52;;;;;;;7.77;6.00;;;10.70;72.50;;;;;;6276175;28;21001;-63
2021/11/09 16:51:14;;;;;;;7.50;6.23;;;10.70;72.90;;;;;;6275234;28;20493;-66
2021/11/09 16:54:25;;;;;;;8.63;5.80;;;10.60;73.30;;;;;;6272912;28;20810;-67
2021/11/09 16:57:43;;;;;;;6.50;5.53;;;10.50;74.30;;;;;;6275657;28;20481;-67
2021/11/09 17:00:55;;;;;;;9.47;5.90;;;10.50;75.80;;;;;;6275396;28;20970;-66
2021/11/09 18:15:16;;;;;;;11.47;8.77;;;9.00;86.70;;;;;;6274247;28;20481;-65
2021/11/09 18:21:40;;;;;;;11.10;9.17;;;8.90;88.80;;;;;;6272669;28;20439;-65
2021/11/09 18:24:45;;;;;;;12.33;8.70;;;8.90;89.90;;;;;;6274394;28;20473;-64
2021/11/09 18:27:50;;;;;;;11.70;8.83;;;8.80;89.60;;;;;;6267363;28;20486;-65
2021/11/09 18:30:53;;;;;;;10.53;7.87;;;8.80;89.80;;;;;;6249290;28;20517;-65
2021/11/09 18:34:00;;;;;;;11.13;8.37;;;8.80;90.10;;;;;;6248441;28;20459;-65
2021/11/09 18:37:04;;;;;;;8.43;7.50;;;8.80;90.30;;;;;;6248205;28;20490;-65
2021/11/09 18:40:13;;;;;;;10.97;7.90;;;8.70;90.40;;;;;;6248421;28;20484;-65
2021/11/09 18:43:21;;;;;;;7.67;6.90;;;8.60;90.80;;;;;;6249428;28;20502;-64
2021/11/09 18:46:25;;;;;;;10.97;7.43;;;8.60;90.70;;;;;;6248230;28;20467;-65
2021/11/09 18:49:28;;;;;;;8.10;6.60;;;8.50;90.60;;;;;;6238962;28;20946;-65
2021/11/09 18:52:32;;;;;;;11.50;8.50;;;8.50;90.70;;;;;;6248286;28;20485;-65
2021/11/09 18:55:37;;;;;;;11.70;10.50;;;8.40;90.80;;;;;;6273113;28;20934;-64
2021/11/09 18:58:40;;;;;;;8.30;7.50;;;8.40;91.00;;;;;;6272921;28;20981;-66
2021/11/09 19:01:44;;;;;;;10.33;7.20;;;8.40;91.20;;;;;;6273296;28;20470;-64
2021/11/09 19:04:48;;;;;;;7.47;6.57;;;8.30;91.30;;;;;;6285123;28;20477;-66
2021/11/09 19:07:52;;;;;;;14.43;8.70;;;8.30;91.50;;;;;;6298039;28;20461;-67
2021/11/09 19:10:57;;;;;;;10.20;7.60;;;8.30;91.60;;;;;;6284623;28;20466;-64
2021/11/09 19:14:01;;;;;;;10.43;7.93;;;8.30;91.70;;;;;;6286710;28;20921;-63
2021/11/09 19:17:05;;;;;;;8.63;7.83;;;8.20;91.60;;;;;;6297393;28;20572;-63
2021/11/09 19:20:10;;;;;;;7.60;6.90;;;8.20;91.90;;;;;;6282969;28;20970;-64